Time;durP1;ratioP1;P1;durP2;ratioP2;P2;SDS_P1;SDS_P2;PMS_P1;PMS_P2;Temp;Humidity;BMP_temperature;BMP_pressure;BME280_temperature;BME280_humidity;BME280_pressure;Samples;Min_cycle;Max_cycle;Signal;HPM_P1;HPM_P2
2023/01/24 00:01:42;;;;;;;18.92;8.23;;;;;;;;;;5034937;28;20024;-86
2023/01/24 00:04:07;;;;;;;15.63;7.72;;;;;;;;;;5018199;28;20040;-85
2023/01/24 00:06:33;;;;;;;15.00;8.00;;;;;;;;;;5033588;28;20040;-86
2023/01/24 00:08:58;;;;;;;14.77;8.27;;;;;;;;;;5017836;28;20136;-86
2023/01/24 00:11:26;;;;;;;14.38;7.75;;;;;;;;;;5034256;28;20504;-86
2023/01/24 00:13:52;;;;;;;15.20;7.13;;;;;;;;;;5017450;28;20029;-86
2023/01/24 00:16:21;;;;;;;16.77;8.23;;;;;;;;;;5041037;28;20162;-87
2023/01/24 00:18:48;;;;;;;14.98;7.68;;;;;;;;;;5033909;28;20508;-87
2023/01/24 00:21:19;;;;;;;16.92;8.77;;;;;;;;;;5039763;28;20075;-87
2023/01/24 00:23:47;;;;;;;15.73;8.10;;;;;;;;;;5027974;28;20341;-87
2023/01/24 00:26:13;;;;;;;14.55;8.40;;;;;;;;;;5019671;28;20036;-87
2023/01/24 00:28:39;;;;;;;18.25;7.90;;;;;;;;;;5047982;28;20040;-86
2023/01/24 00:31:07;;;;;;;15.88;8.30;;;;;;;;;;5015646;28;20029;-86
2023/01/24 00:33:33;;;;;;;17.20;8.05;;;;;;;;;;5033882;28;20048;-84
2023/01/24 00:35:59;;;;;;;16.25;8.55;;;;;;;;;;5015094;28;20040;-84
2023/01/24 00:38:25;;;;;;;16.58;8.27;;;;;;;;;;5023047;28;20040;-84
2023/01/24 00:40:50;;;;;;;15.38;8.07;;;;;;;;;;5026035;28;20037;-85
2023/01/24 00:43:16;;;;;;;15.43;8.30;;;;;;;;;;5022826;28;20626;-85
2023/01/24 00:45:43;;;;;;;19.40;8.38;;;;;;;;;;5024836;28;20052;-85
2023/01/24 00:48:12;;;;;;;18.10;8.63;;;;;;;;;;5013424;28;20048;-85
2023/01/24 00:50:38;;;;;;;16.10;8.23;;;;;;;;;;5015393;28;20111;-86
2023/01/24 00:53:04;;;;;;;15.10;8.27;;;;;;;;;;5011959;28;20958;-85
2023/01/24 00:55:30;;;;;;;20.13;8.63;;;;;;;;;;5032902;28;20400;-85
2023/01/24 00:57:55;;;;;;;16.08;8.73;;;;;;;;;;5023312;28;20037;-86
2023/01/24 01:00:21;;;;;;;19.63;8.85;;;;;;;;;;5024373;28;20037;-86
2023/01/24 01:02:48;;;;;;;18.75;8.48;;;;;;;;;;5010694;28;20071;-85
2023/01/24 01:05:16;;;;;;;22.05;9.70;;;;;;;;;;5023570;28;20125;-86
2023/01/24 01:07:42;;;;;;;18.42;9.07;;;;;;;;;;5020069;28;20043;-88
2023/01/24 01:10:11;;;;;;;18.92;8.63;;;;;;;;;;5021652;28;20076;-88
2023/01/24 01:12:36;;;;;;;18.17;8.93;;;;;;;;;;5026828;28;20035;-88
2023/01/24 01:15:02;;;;;;;18.55;9.07;;;;;;;;;;5020061;28;20029;-88
2023/01/24 01:17:28;;;;;;;15.88;8.07;;;;;;;;;;5030820;28;20213;-89
2023/01/24 01:19:53;;;;;;;20.95;8.70;;;;;;;;;;5019523;28;20043;-88
2023/01/24 01:22:20;;;;;;;18.27;8.32;;;;;;;;;;5036918;28;20459;-89
2023/01/24 01:24:45;;;;;;;16.40;8.73;;;;;;;;;;5039843;28;20098;-88
2023/01/24 01:27:11;;;;;;;20.50;8.93;;;;;;;;;;5018678;28;20033;-88
2023/01/24 01:29:43;;;;;;;16.55;8.40;;;;;;;;;;5029222;28;20111;-88
2023/01/24 01:32:08;;;;;;;18.08;8.88;;;;;;;;;;5020714;28;20048;-88
2023/01/24 01:34:34;;;;;;;16.70;8.18;;;;;;;;;;5022106;28;20051;-88
2023/01/24 01:36:59;;;;;;;15.43;7.70;;;;;;;;;;5047483;28;20041;-87
2023/01/24 01:39:25;;;;;;;18.45;8.95;;;;;;;;;;5037750;28;20101;-88
2023/01/24 01:41:50;;;;;;;16.02;8.00;;;;;;;;;;5026302;28;20028;-88
2023/01/24 01:44:49;;;;;;;19.10;8.40;;;;;;;;;;5017683;28;20400;-88
2023/01/24 01:47:35;;;;;;;16.42;7.80;;;;;;;;;;5038517;28;20505;-89
2023/01/24 01:50:18;;;;;;;16.50;7.78;;;;;;;;;;5030143;28;20029;-85
2023/01/24 01:52:43;;;;;;;18.02;7.78;;;;;;;;;;5037137;28;20445;-89
2023/01/24 01:55:18;;;;;;;16.15;8.07;;;;;;;;;;5026951;28;20120;-85
2023/01/24 01:57:45;;;;;;;14.90;7.25;;;;;;;;;;5041800;28;20037;-88
2023/01/24 02:00:13;;;;;;;15.40;7.33;;;;;;;;;;5027236;28;20172;-88
2023/01/24 02:02:41;;;;;;;18.58;7.93;;;;;;;;;;5021880;28;20119;-89
2023/01/24 02:05:08;;;;;;;15.25;7.25;;;;;;;;;;5020754;28;20040;-89
2023/01/24 02:07:37;;;;;;;13.50;7.25;;;;;;;;;;5042055;28;20448;-89
2023/01/24 02:10:03;;;;;;;15.75;7.07;;;;;;;;;;5038652;28;20039;-88
2023/01/24 02:12:33;;;;;;;15.50;7.10;;;;;;;;;;5031085;28;20472;-89
2023/01/24 02:17:53;;;;;;;11.82;6.60;;;;;;;;;;5039174;28;20697;-89
2023/01/24 02:20:41;;;;;;;12.27;6.70;;;;;;;;;;5032652;28;20033;-92
2023/01/24 02:23:13;;;;;;;11.70;6.20;;;;;;;;;;5036668;28;20044;-90
2023/01/24 02:26:10;;;;;;;12.15;6.60;;;;;;;;;;5035479;28;20098;-89
2023/01/24 02:28:35;;;;;;;14.05;6.97;;;;;;;;;;5026498;28;20589;-88
2023/01/24 02:31:03;;;;;;;14.05;6.50;;;;;;;;;;5023166;28;20036;-90
2023/01/24 02:33:33;;;;;;;11.85;5.78;;;;;;;;;;5022131;28;20051;-88
2023/01/24 02:36:24;;;;;;;12.25;5.93;;;;;;;;;;5026877;28;21492;-88
2023/01/24 02:39:06;;;;;;;12.00;6.50;;;;;;;;;;5020614;28;20044;-89
2023/01/24 02:41:43;;;;;;;14.63;6.57;;;;;;;;;;5024287;28;20032;-87
2023/01/24 02:44:12;;;;;;;13.23;6.53;;;;;;;;;;5023902;28;20537;-90
2023/01/24 02:46:38;;;;;;;11.77;6.47;;;;;;;;;;5011563;28;20029;-87
2023/01/24 02:49:08;;;;;;;12.38;6.60;;;;;;;;;;5044307;28;20392;-89
2023/01/24 02:54:17;;;;;;;12.00;6.57;;;;;;;;;;5038220;28;20048;-90
2023/01/24 02:59:29;;;;;;;11.98;5.97;;;;;;;;;;5036143;28;20142;-88
2023/01/24 03:01:55;;;;;;;13.45;6.28;;;;;;;;;;5024201;28;20539;-87
2023/01/24 03:04:23;;;;;;;13.40;6.82;;;;;;;;;;5022526;28;20051;-90
2023/01/24 03:06:48;;;;;;;10.75;5.55;;;;;;;;;;5014349;28;20036;-88
2023/01/24 03:09:18;;;;;;;12.23;6.43;;;;;;;;;;5028210;28;20041;-89
2023/01/24 03:11:47;;;;;;;10.50;5.90;;;;;;;;;;5049407;28;20111;-89
2023/01/24 03:36:07;;;;;;;11.18;6.00;;;;;;;;;;5046951;28;20043;-89
2023/01/24 03:41:17;;;;;;;11.63;6.13;;;;;;;;;;5037590;28;20031;-90
2023/01/24 03:43:46;;;;;;;9.30;5.40;;;;;;;;;;5029391;28;20480;-91
2023/01/24 03:46:11;;;;;;;11.90;6.10;;;;;;;;;;5045075;28;20412;-88
2023/01/24 03:48:36;;;;;;;13.18;5.80;;;;;;;;;;5046463;28;20044;-90
2023/01/24 03:53:48;;;;;;;11.07;6.43;;;;;;;;;;5046221;28;20036;-89
2023/01/24 03:56:14;;;;;;;12.50;5.90;;;;;;;;;;5036292;28;20053;-89
2023/01/24 03:58:39;;;;;;;10.70;5.60;;;;;;;;;;5035998;28;20067;-89
2023/01/24 04:01:05;;;;;;;9.13;5.40;;;;;;;;;;5017597;28;20142;-87
2023/01/24 04:03:32;;;;;;;10.48;5.25;;;;;;;;;;5027491;28;20028;-87
2023/01/24 04:05:58;;;;;;;10.05;5.50;;;;;;;;;;5017351;28;20392;-86
2023/01/24 04:08:26;;;;;;;11.43;5.68;;;;;;;;;;5044631;28;20040;-88
2023/01/24 04:10:55;;;;;;;11.00;5.38;;;;;;;;;;5034556;28;20029;-87
2023/01/24 04:13:20;;;;;;;10.95;5.65;;;;;;;;;;5033005;28;20041;-88
2023/01/24 04:15:46;;;;;;;10.00;5.35;;;;;;;;;;5020232;28;20123;-87
2023/01/24 04:18:11;;;;;;;10.35;5.35;;;;;;;;;;5022894;28;20075;-87
2023/01/24 04:20:37;;;;;;;9.70;5.68;;;;;;;;;;5026398;28;20033;-88
2023/01/24 04:23:04;;;;;;;10.10;5.40;;;;;;;;;;5049240;28;20036;-87
2023/01/24 04:25:29;;;;;;;9.00;4.97;;;;;;;;;;5021243;28;20452;-86
2023/01/24 04:27:56;;;;;;;8.93;4.75;;;;;;;;;;5026146;28;20071;-88
2023/01/24 04:30:21;;;;;;;9.43;5.15;;;;;;;;;;5023917;28;20649;-88
2023/01/24 04:32:47;;;;;;;12.60;5.80;;;;;;;;;;5043144;28;20040;-88
2023/01/24 04:35:21;;;;;;;9.93;5.53;;;;;;;;;;5005739;28;20029;-87
2023/01/24 04:37:47;;;;;;;11.52;5.43;;;;;;;;;;5042079;28;20040;-86
2023/01/24 04:40:14;;;;;;;9.55;4.75;;;;;;;;;;5026386;28;20036;-87
2023/01/24 04:42:40;;;;;;;11.40;5.45;;;;;;;;;;5003947;28;20044;-86
2023/01/24 04:45:06;;;;;;;10.93;5.50;;;;;;;;;;5006347;28;20366;-87
2023/01/24 04:47:32;;;;;;;10.25;5.50;;;;;;;;;;5013667;28;20040;-86
2023/01/24 04:49:57;;;;;;;10.77;5.53;;;;;;;;;;5026605;28;20037;-86
2023/01/24 04:52:23;;;;;;;10.23;5.90;;;;;;;;;;5009708;28;20496;-86
2023/01/24 04:54:49;;;;;;;9.60;5.38;;;;;;;;;;5016964;28;20038;-86
2023/01/24 04:57:14;;;;;;;10.13;5.53;;;;;;;;;;5030384;28;20036;-85
2023/01/24 04:59:42;;;;;;;10.02;5.65;;;;;;;;;;5011894;28;20094;-86
2023/01/24 05:02:08;;;;;;;10.27;5.60;;;;;;;;;;5046956;28;20064;-86
2023/01/24 05:04:34;;;;;;;10.15;5.30;;;;;;;;;;5025556;28;20079;-86
2023/01/24 05:07:00;;;;;;;10.93;5.97;;;;;;;;;;5018716;28;20527;-86
2023/01/24 05:09:25;;;;;;;13.05;6.40;;;;;;;;;;5010832;28;20060;-88
2023/01/24 05:11:51;;;;;;;10.65;5.68;;;;;;;;;;5045423;28;20398;-86
2023/01/24 05:14:16;;;;;;;11.43;5.75;;;;;;;;;;5022925;28;20124;-87
2023/01/24 05:16:42;;;;;;;10.32;5.63;;;;;;;;;;5045357;28;20029;-87
2023/01/24 05:19:07;;;;;;;10.82;5.88;;;;;;;;;;5025146;28;20116;-88
2023/01/24 05:21:33;;;;;;;13.20;6.00;;;;;;;;;;5020341;28;20116;-88
2023/01/24 05:23:58;;;;;;;12.00;6.13;;;;;;;;;;5047362;28;20052;-87
2023/01/24 05:26:25;;;;;;;9.65;5.40;;;;;;;;;;5045238;28;20056;-87
2023/01/24 05:28:51;;;;;;;10.93;5.80;;;;;;;;;;5039081;28;20497;-89
2023/01/24 05:31:17;;;;;;;9.85;5.53;;;;;;;;;;5045281;28;20054;-86
2023/01/24 05:33:42;;;;;;;10.73;5.60;;;;;;;;;;5039470;28;20130;-87
2023/01/24 05:36:10;;;;;;;11.88;5.93;;;;;;;;;;5023108;28;20032;-86
2023/01/24 05:38:36;;;;;;;11.00;5.78;;;;;;;;;;5020640;28;20117;-85
2023/01/24 05:41:04;;;;;;;10.52;5.65;;;;;;;;;;5028120;28;20721;-86
2023/01/24 05:43:30;;;;;;;10.85;5.70;;;;;;;;;;5026245;28;20064;-87
2023/01/24 05:46:19;;;;;;;11.10;5.72;;;;;;;;;;5017582;28;20170;-87
2023/01/24 05:48:46;;;;;;;11.98;5.90;;;;;;;;;;5034644;28;20115;-87
2023/01/24 05:51:13;;;;;;;11.05;5.55;;;;;;;;;;5039731;28;20461;-87
2023/01/24 05:53:41;;;;;;;10.10;5.70;;;;;;;;;;5023522;28;20025;-87
2023/01/24 05:56:10;;;;;;;10.32;5.65;;;;;;;;;;5028624;28;20484;-87
2023/01/24 05:58:39;;;;;;;11.93;6.35;;;;;;;;;;5020052;28;20040;-86
2023/01/24 06:01:07;;;;;;;11.75;6.40;;;;;;;;;;5025699;28;20037;-87
2023/01/24 06:03:32;;;;;;;10.57;5.82;;;;;;;;;;5023616;28;20036;-86
2023/01/24 06:05:58;;;;;;;12.20;5.90;;;;;;;;;;5043046;28;20038;-86
2023/01/24 06:08:23;;;;;;;11.48;6.13;;;;;;;;;;5034913;28;20521;-90
2023/01/24 06:10:49;;;;;;;11.68;5.65;;;;;;;;;;5028774;28;20037;-87
2023/01/24 06:13:15;;;;;;;12.52;6.10;;;;;;;;;;5032868;28;20037;-85
2023/01/24 06:15:40;;;;;;;10.35;5.68;;;;;;;;;;5038872;28;20621;-86
2023/01/24 06:18:07;;;;;;;10.77;6.07;;;;;;;;;;5023395;28;20029;-88
2023/01/24 06:20:33;;;;;;;11.00;6.03;;;;;;;;;;5027256;28;20122;-86
2023/01/24 06:23:26;;;;;;;12.57;6.45;;;;;;;;;;5038392;28;20029;-85
2023/01/24 06:25:52;;;;;;;11.15;6.30;;;;;;;;;;4976255;28;20121;-86
2023/01/24 06:28:17;;;;;;;10.55;5.53;;;;;;;;;;4967708;28;20648;-86
2023/01/24 06:30:48;;;;;;;10.32;5.75;;;;;;;;;;4958225;28;20110;-87
2023/01/24 06:33:19;;;;;;;11.35;6.28;;;;;;;;;;4954088;28;20050;-86
2023/01/24 06:36:10;;;;;;;12.73;5.88;;;;;;;;;;4967664;28;20501;-80
2023/01/24 06:38:35;;;;;;;11.85;5.85;;;;;;;;;;4981781;28;20064;-78
2023/01/24 06:41:02;;;;;;;10.98;6.05;;;;;;;;;;4992581;28;20072;-78
2023/01/24 06:43:28;;;;;;;12.20;5.72;;;;;;;;;;5000007;28;20048;-78
2023/01/24 06:45:54;;;;;;;10.77;5.80;;;;;;;;;;4979322;28;20095;-78
2023/01/24 06:48:20;;;;;;;10.77;5.80;;;;;;;;;;4991872;28;20501;-78
2023/01/24 06:50:45;;;;;;;12.25;6.63;;;;;;;;;;4979115;28;20064;-77
2023/01/24 06:53:12;;;;;;;11.05;5.90;;;;;;;;;;4980784;28;20147;-77
2023/01/24 06:55:38;;;;;;;11.18;5.97;;;;;;;;;;4977459;28;20040;-78
2023/01/24 06:58:04;;;;;;;11.80;6.00;;;;;;;;;;4997273;28;20505;-78
2023/01/24 07:00:29;;;;;;;12.35;6.35;;;;;;;;;;4991278;28;20046;-78
2023/01/24 07:02:58;;;;;;;10.98;5.95;;;;;;;;;;5011148;28;20373;-79
2023/01/24 07:05:24;;;;;;;14.00;6.70;;;;;;;;;;5049107;28;20075;-84
2023/01/24 07:07:49;;;;;;;12.25;6.07;;;;;;;;;;5032178;28;20944;-84
2023/01/24 07:10:16;;;;;;;11.50;6.20;;;;;;;;;;5027281;28;20140;-84
2023/01/24 07:12:42;;;;;;;11.00;6.40;;;;;;;;;;5044125;28;20033;-83
2023/01/24 07:15:08;;;;;;;11.02;6.18;;;;;;;;;;5033237;28;20082;-84
2023/01/24 07:17:33;;;;;;;12.20;6.03;;;;;;;;;;5018875;28;20044;-84
2023/01/24 07:19:59;;;;;;;11.93;5.75;;;;;;;;;;5032509;28;20033;-84
2023/01/24 07:22:25;;;;;;;13.20;6.68;;;;;;;;;;5051337;28;20044;-84
2023/01/24 07:24:50;;;;;;;11.85;5.55;;;;;;;;;;5050473;28;20507;-84
2023/01/24 07:27:16;;;;;;;12.18;6.07;;;;;;;;;;5034493;28;20044;-84
2023/01/24 07:29:42;;;;;;;13.10;6.18;;;;;;;;;;5050517;28;20040;-83
2023/01/24 07:32:09;;;;;;;12.95;6.72;;;;;;;;;;5044955;28;20388;-84
2023/01/24 07:34:34;;;;;;;13.55;6.20;;;;;;;;;;5040449;28;20052;-84
2023/01/24 07:37:00;;;;;;;14.93;6.95;;;;;;;;;;5023455;28;20033;-83
2023/01/24 07:39:28;;;;;;;11.32;5.90;;;;;;;;;;5033347;28;20035;-83
2023/01/24 07:41:54;;;;;;;14.18;6.28;;;;;;;;;;5049348;28;20559;-83
2023/01/24 07:44:19;;;;;;;16.80;7.18;;;;;;;;;;5027429;28;20050;-83
2023/01/24 07:46:45;;;;;;;15.40;6.68;;;;;;;;;;5019569;28;20505;-83
2023/01/24 07:49:10;;;;;;;16.85;6.97;;;;;;;;;;5025194;28;20950;-83
2023/01/24 07:51:36;;;;;;;16.73;6.82;;;;;;;;;;5027073;28;20464;-83
2023/01/24 07:54:02;;;;;;;16.25;7.40;;;;;;;;;;5027272;28;20400;-83
2023/01/24 07:56:27;;;;;;;14.10;6.40;;;;;;;;;;5031752;28;20064;-82
2023/01/24 07:58:53;;;;;;;16.67;7.18;;;;;;;;;;5026577;28;20033;-83
2023/01/24 08:01:20;;;;;;;16.08;6.30;;;;;;;;;;5022057;28;20060;-82
2023/01/24 08:03:49;;;;;;;14.98;6.88;;;;;;;;;;5026897;28;21001;-83
2023/01/24 08:06:22;;;;;;;16.98;7.13;;;;;;;;;;5007562;28;20693;-84
2023/01/24 08:08:47;;;;;;;17.02;7.53;;;;;;;;;;5009338;28;20148;-84
2023/01/24 08:11:15;;;;;;;16.92;7.65;;;;;;;;;;5017409;28;20148;-84
2023/01/24 08:13:41;;;;;;;18.13;7.65;;;;;;;;;;5035320;28;20051;-83
2023/01/24 08:16:07;;;;;;;19.85;7.90;;;;;;;;;;5024296;28;20070;-84
2023/01/24 08:18:33;;;;;;;18.33;7.40;;;;;;;;;;5018398;28;20048;-84
2023/01/24 08:20:58;;;;;;;18.42;7.63;;;;;;;;;;5016742;28;20057;-83
2023/01/24 08:23:24;;;;;;;15.20;7.03;;;;;;;;;;5027717;28;20485;-84
2023/01/24 08:25:49;;;;;;;19.58;8.20;;;;;;;;;;5022565;28;20118;-83
2023/01/24 08:28:15;;;;;;;20.42;7.32;;;;;;;;;;5025825;28;20033;-83
2023/01/24 08:30:40;;;;;;;20.08;8.35;;;;;;;;;;5020334;28;20061;-84
2023/01/24 08:33:06;;;;;;;19.60;9.32;;;;;;;;;;5016029;28;20056;-84
2023/01/24 08:35:36;;;;;;;20.50;8.40;;;;;;;;;;5014436;28;20374;-83
2023/01/24 08:38:01;;;;;;;20.25;8.20;;;;;;;;;;5017444;28;20484;-83
2023/01/24 08:40:27;;;;;;;19.40;7.47;;;;;;;;;;5043060;28;20048;-83
2023/01/24 08:42:52;;;;;;;21.02;8.07;;;;;;;;;;5040170;28;20033;-84
2023/01/24 08:45:18;;;;;;;19.35;8.50;;;;;;;;;;5021084;28;20132;-84
2023/01/24 08:47:43;;;;;;;21.30;8.57;;;;;;;;;;5032354;28;20033;-84
2023/01/24 08:50:10;;;;;;;20.05;8.00;;;;;;;;;;5049103;28;20048;-84
2023/01/24 08:52:35;;;;;;;19.95;9.02;;;;;;;;;;5026931;28;20107;-84
2023/01/24 08:55:01;;;;;;;22.85;8.10;;;;;;;;;;5020304;28;20033;-83
2023/01/24 08:57:26;;;;;;;23.50;9.23;;;;;;;;;;5011082;28;20037;-82
2023/01/24 08:59:51;;;;;;;24.75;8.52;;;;;;;;;;5025128;28;20048;-83
2023/01/24 09:02:17;;;;;;;24.35;8.80;;;;;;;;;;5019086;28;20099;-84
2023/01/24 09:04:42;;;;;;;24.08;10.10;;;;;;;;;;5021336;28;20074;-85
2023/01/24 09:07:10;;;;;;;25.48;10.02;;;;;;;;;;5037963;28;20074;-84
2023/01/24 09:09:35;;;;;;;20.23;7.65;;;;;;;;;;5051095;28;20504;-84
2023/01/24 09:12:01;;;;;;;27.35;9.32;;;;;;;;;;5019621;28;20029;-83
2023/01/24 09:14:27;;;;;;;25.25;9.90;;;;;;;;;;5014673;28;20599;-83
2023/01/24 09:16:52;;;;;;;26.00;8.85;;;;;;;;;;5050085;28;20029;-84
2023/01/24 09:19:17;;;;;;;26.58;9.60;;;;;;;;;;5026277;28;20087;-84
2023/01/24 09:21:44;;;;;;;27.80;10.07;;;;;;;;;;5026940;28;20098;-85
2023/01/24 09:24:10;;;;;;;27.52;10.50;;;;;;;;;;5023381;28;20037;-84
2023/01/24 09:26:35;;;;;;;27.10;10.50;;;;;;;;;;5029681;28;20186;-84
2023/01/24 09:29:00;;;;;;;30.15;10.07;;;;;;;;;;5031314;28;20067;-83
2023/01/24 09:31:26;;;;;;;28.63;9.52;;;;;;;;;;5030192;28;20037;-83
2023/01/24 09:33:51;;;;;;;21.58;9.23;;;;;;;;;;5025858;28;20048;-84
2023/01/24 09:36:17;;;;;;;24.92;10.32;;;;;;;;;;4991462;28;20523;-85
2023/01/24 09:38:42;;;;;;;22.92;9.27;;;;;;;;;;5022333;28;20033;-84
2023/01/24 09:41:07;;;;;;;23.75;9.25;;;;;;;;;;5024006;28;20055;-83
2023/01/24 09:43:43;;;;;;;29.90;10.25;;;;;;;;;;5039196;28;20036;-84
2023/01/24 09:46:11;;;;;;;28.08;9.52;;;;;;;;;;5016929;28;20095;-84
2023/01/24 09:48:37;;;;;;;25.60;9.60;;;;;;;;;;5050819;28;20032;-84
2023/01/24 09:51:13;;;;;;;25.85;10.00;;;;;;;;;;5041037;28;20095;-83
2023/01/24 09:53:46;;;;;;;25.85;10.05;;;;;;;;;;5033337;28;20041;-83
2023/01/24 09:56:26;;;;;;;29.50;10.15;;;;;;;;;;5034037;28;20670;-83
2023/01/24 09:59:15;;;;;;;28.77;10.75;;;;;;;;;;5020323;28;20060;-83
2023/01/24 10:01:41;;;;;;;25.83;11.13;;;;;;;;;;5021345;28;20052;-83
2023/01/24 10:04:20;;;;;;;28.63;10.00;;;;;;;;;;5038636;28;20404;-83
2023/01/24 10:07:15;;;;;;;29.55;10.00;;;;;;;;;;5030528;28;20127;-84
2023/01/24 10:10:14;;;;;;;31.95;11.00;;;;;;;;;;5025816;28;20597;-83
2023/01/24 10:13:03;;;;;;;27.23;9.93;;;;;;;;;;5030572;28;20032;-84
2023/01/24 10:15:54;;;;;;;28.40;10.57;;;;;;;;;;5055017;28;20041;-82
2023/01/24 10:18:41;;;;;;;29.23;10.25;;;;;;;;;;5048902;28;20037;-81
2023/01/24 10:21:18;;;;;;;33.08;11.27;;;;;;;;;;5005182;28;20484;-82
2023/01/24 10:23:58;;;;;;;34.50;11.60;;;;;;;;;;5052411;28;20175;-82
2023/01/24 10:26:35;;;;;;;28.38;11.45;;;;;;;;;;5047968;28;20044;-83
2023/01/24 10:29:25;;;;;;;32.72;12.10;;;;;;;;;;5055305;28;20051;-81
2023/01/24 10:32:04;;;;;;;40.05;13.82;;;;;;;;;;5007887;28;20032;-81
2023/01/24 10:35:02;;;;;;;34.33;13.45;;;;;;;;;;5028801;28;20097;-81
2023/01/24 10:37:37;;;;;;;28.50;11.40;;;;;;;;;;5022564;28;20041;-83
2023/01/24 10:40:14;;;;;;;31.52;12.48;;;;;;;;;;5028931;28;20038;-82
2023/01/24 10:42:40;;;;;;;38.30;12.73;;;;;;;;;;5043655;28;20056;-81
2023/01/24 10:45:30;;;;;;;32.90;12.25;;;;;;;;;;5042614;28;20041;-81
2023/01/24 10:48:02;;;;;;;33.42;11.55;;;;;;;;;;5069526;28;20497;-82
2023/01/24 10:50:40;;;;;;;34.63;12.32;;;;;;;;;;5018258;28;20063;-81
2023/01/24 10:53:14;;;;;;;37.92;12.52;;;;;;;;;;5020768;28;20041;-82
2023/01/24 10:55:40;;;;;;;36.20;13.05;;;;;;;;;;5035672;28;20511;-83
2023/01/24 10:58:26;;;;;;;41.78;14.05;;;;;;;;;;5019317;28;20041;-82
2023/01/24 11:00:59;;;;;;;43.38;12.55;;;;;;;;;;5020357;28;20056;-83
2023/01/24 11:03:30;;;;;;;37.38;12.88;;;;;;;;;;5035914;28;20040;-84
2023/01/24 11:05:57;;;;;;;41.03;12.57;;;;;;;;;;5033033;28;20060;-84
2023/01/24 11:08:25;;;;;;;33.70;12.80;;;;;;;;;;5034181;28;20037;-86
2023/01/24 11:10:58;;;;;;;39.15;12.48;;;;;;;;;;5047776;28;20036;-85
2023/01/24 11:13:36;;;;;;;39.33;14.02;;;;;;;;;;5058856;28;20119;-86
2023/01/24 11:16:27;;;;;;;41.97;12.82;;;;;;;;;;5034910;28;20107;-85
2023/01/24 11:18:59;;;;;;;41.33;12.75;;;;;;;;;;5006325;28;21376;-86
2023/01/24 11:21:24;;;;;;;39.60;13.60;;;;;;;;;;4996523;28;20053;-86
2023/01/24 11:24:09;;;;;;;36.10;11.95;;;;;;;;;;5006206;28;20504;-85
2023/01/24 11:26:38;;;;;;;36.70;12.65;;;;;;;;;;5022122;28;20057;-85
2023/01/24 11:29:18;;;;;;;36.53;12.38;;;;;;;;;;5014799;28;20037;-85
2023/01/24 11:31:50;;;;;;;37.17;12.43;;;;;;;;;;5019409;28;20037;-85
2023/01/24 11:34:44;;;;;;;32.45;13.18;;;;;;;;;;5004982;28;20037;-85
2023/01/24 11:37:47;;;;;;;37.60;13.43;;;;;;;;;;4969534;28;20044;-82
2023/01/24 11:40:20;;;;;;;33.03;12.60;;;;;;;;;;5022687;28;20739;-84
2023/01/24 11:43:29;;;;;;;31.77;11.50;;;;;;;;;;4994411;28;20041;-84
2023/01/24 11:46:35;;;;;;;35.58;12.60;;;;;;;;;;4990988;28;20448;-84
2023/01/24 11:49:30;;;;;;;40.30;13.73;;;;;;;;;;5004866;28;20096;-84
2023/01/24 11:52:15;;;;;;;41.30;13.73;;;;;;;;;;5010890;28;20120;-83
2023/01/24 11:54:43;;;;;;;38.90;11.55;;;;;;;;;;4999293;28;20067;-85
2023/01/24 11:57:14;;;;;;;39.83;14.13;;;;;;;;;;5045904;28;20037;-85
2023/01/24 11:59:50;;;;;;;35.47;12.60;;;;;;;;;;5061322;28;20033;-84
2023/01/24 12:02:46;;;;;;;33.92;12.77;;;;;;;;;;5048655;28;20749;-85
2023/01/24 12:05:39;;;;;;;35.80;13.20;;;;;;;;;;5031686;28;20095;-84
2023/01/24 12:08:26;;;;;;;37.25;14.32;;;;;;;;;;5029896;28;20499;-83
2023/01/24 12:10:51;;;;;;;33.28;12.65;;;;;;;;;;5034893;28;20033;-83
2023/01/24 12:13:35;;;;;;;33.70;11.98;;;;;;;;;;5050700;28;20120;-84
2023/01/24 12:16:19;;;;;;;34.53;12.73;;;;;;;;;;5028852;28;20057;-84
2023/01/24 12:19:06;;;;;;;35.47;13.10;;;;;;;;;;5057993;28;20485;-84
2023/01/24 12:21:31;;;;;;;;;;;;;;;;;;5044837;28;20575;-85
2023/01/24 12:24:09;;;;;;;35.13;11.15;;;;;;;;;;5035085;28;20061;-84
2023/01/24 12:26:44;;;;;;;37.00;12.48;;;;;;;;;;5035130;28;20677;-84
2023/01/24 12:29:18;;;;;;;36.88;12.80;;;;;;;;;;5033076;28;20120;-84
2023/01/24 12:32:01;;;;;;;35.30;12.55;;;;;;;;;;5054005;28;20029;-83
2023/01/24 12:34:35;;;;;;;31.10;12.80;;;;;;;;;;5048372;28;20051;-84
2023/01/24 12:37:08;;;;;;;38.35;13.23;;;;;;;;;;5047684;28;21851;-84
2023/01/24 12:39:41;;;;;;;36.67;12.13;;;;;;;;;;5047773;28;20052;-83
2023/01/24 12:42:19;;;;;;;34.38;13.18;;;;;;;;;;5014583;28;20032;-84
2023/01/24 12:44:52;;;;;;;36.88;12.93;;;;;;;;;;5046375;28;20033;-83
2023/01/24 12:47:28;;;;;;;32.45;12.05;;;;;;;;;;5034833;28;20033;-84
2023/01/24 12:50:42;;;;;;;31.45;12.38;;;;;;;;;;5038908;28;20463;-84
2023/01/24 12:53:18;;;;;;;30.83;11.77;;;;;;;;;;5046559;28;20033;-84
2023/01/24 12:56:03;;;;;;;34.53;12.73;;;;;;;;;;5035021;28;20446;-83
2023/01/24 12:58:37;;;;;;;34.25;12.48;;;;;;;;;;5047743;28;20147;-83
2023/01/24 13:01:06;;;;;;;32.10;12.27;;;;;;;;;;5031608;28;20098;-82
2023/01/24 13:03:53;;;;;;;29.05;11.25;;;;;;;;;;5048852;28;20040;-84
2023/01/24 13:06:22;;;;;;;30.73;11.57;;;;;;;;;;5045446;28;20045;-83
2023/01/24 13:09:07;;;;;;;33.08;12.85;;;;;;;;;;5015057;28;20507;-84
2023/01/24 13:11:39;;;;;;;26.45;10.50;;;;;;;;;;5034796;28;20040;-84
2023/01/24 13:14:37;;;;;;;30.02;10.70;;;;;;;;;;5024654;28;20032;-85
2023/01/24 13:17:02;;;;;;;33.00;11.55;;;;;;;;;;5037618;28;20175;-85
2023/01/24 13:19:46;;;;;;;24.90;11.35;;;;;;;;;;5052202;28;20160;-85
2023/01/24 13:22:21;;;;;;;29.88;11.82;;;;;;;;;;5051887;28;20032;-84
2023/01/24 13:25:27;;;;;;;31.80;11.95;;;;;;;;;;5042651;28;20106;-85
2023/01/24 13:28:17;;;;;;;32.10;11.60;;;;;;;;;;5034611;28;20751;-84
2023/01/24 13:31:04;;;;;;;37.58;14.02;;;;;;;;;;5033747;28;20035;-84
2023/01/24 13:33:38;;;;;;;29.67;11.25;;;;;;;;;;5060474;28;20049;-86
2023/01/24 13:36:12;;;;;;;24.70;11.05;;;;;;;;;;5027727;28;20129;-85
2023/01/24 13:38:44;;;;;;;31.35;11.68;;;;;;;;;;5038253;28;20033;-85
2023/01/24 13:41:26;;;;;;;28.17;11.15;;;;;;;;;;5030015;28;20107;-84
2023/01/24 13:44:17;;;;;;;29.30;11.50;;;;;;;;;;5050658;28;20040;-85
2023/01/24 13:46:52;;;;;;;23.83;11.00;;;;;;;;;;5052829;28;20411;-84
2023/01/24 13:49:29;;;;;;;23.75;11.13;;;;;;;;;;5043198;28;20582;-86
2023/01/24 13:51:58;;;;;;;;;;;;;;;;;;5061014;28;20036;-85
2023/01/24 13:54:41;;;;;;;22.02;9.63;;;;;;;;;;5042602;28;19920;-85
2023/01/24 13:57:13;;;;;;;25.38;10.82;;;;;;;;;;5010035;28;20101;-86
2023/01/24 13:59:41;;;;;;;26.42;11.25;;;;;;;;;;5048721;28;20048;-85
2023/01/24 14:02:36;;;;;;;27.88;11.30;;;;;;;;;;5040654;28;20116;-86
2023/01/24 14:05:02;;;;;;;25.02;10.98;;;;;;;;;;5035217;28;20576;-85
2023/01/24 14:07:33;;;;;;;23.88;10.10;;;;;;;;;;5047647;28;20036;-86
2023/01/24 14:10:03;;;;;;;23.02;11.10;;;;;;;;;;5021252;28;20488;-85
2023/01/24 14:12:38;;;;;;;26.33;11.18;;;;;;;;;;5026058;28;20092;-85
2023/01/24 14:15:22;;;;;;;26.90;10.90;;;;;;;;;;5053918;28;20391;-85
2023/01/24 14:17:49;;;;;;;21.75;10.02;;;;;;;;;;5025241;28;20392;-86
2023/01/24 14:20:36;;;;;;;25.67;11.10;;;;;;;;;;5013570;28;20033;-88
2023/01/24 14:23:04;;;;;;;25.00;11.00;;;;;;;;;;5053660;28;20037;-87
2023/01/24 14:25:37;;;;;;;26.42;11.50;;;;;;;;;;5027588;28;20403;-86
2023/01/24 14:28:28;;;;;;;26.20;10.90;;;;;;;;;;5056292;28;20396;-86
2023/01/24 14:31:00;;;;;;;21.60;10.15;;;;;;;;;;5049269;28;20384;-85
2023/01/24 14:33:48;;;;;;;23.38;10.65;;;;;;;;;;5036142;28;20057;-87
2023/01/24 14:36:24;;;;;;;23.35;11.07;;;;;;;;;;5041089;28;20037;-86
2023/01/24 14:39:22;;;;;;;23.17;10.80;;;;;;;;;;5037615;28;20032;-88
2023/01/24 14:42:00;;;;;;;24.08;9.85;;;;;;;;;;4995767;28;20925;-87
2023/01/24 14:44:36;;;;;;;25.80;11.15;;;;;;;;;;5019568;28;20384;-86
2023/01/24 14:47:21;;;;;;;30.02;10.20;;;;;;;;;;5046218;28;20479;-86
2023/01/24 14:49:49;;;;;;;24.25;9.77;;;;;;;;;;5022441;28;20090;-86
2023/01/24 14:52:34;;;;;;;23.75;10.68;;;;;;;;;;5036475;28;20057;-85
2023/01/24 14:55:21;;;;;;;22.48;11.10;;;;;;;;;;5031494;28;20492;-85
2023/01/24 14:57:47;;;;;;;22.33;10.50;;;;;;;;;;5045042;28;20029;-86
2023/01/24 15:00:21;;;;;;;25.63;10.63;;;;;;;;;;5013765;28;20627;-84
2023/01/24 15:02:58;;;;;;;21.60;10.68;;;;;;;;;;5028901;28;20029;-85
2023/01/24 15:05:27;;;;;;;23.55;10.60;;;;;;;;;;5025757;28;20162;-87
2023/01/24 15:07:55;;;;;;;30.60;12.93;;;;;;;;;;5038546;28;20154;-88
2023/01/24 15:10:33;;;;;;;23.10;10.02;;;;;;;;;;5027591;28;20052;-87
2023/01/24 15:13:05;;;;;;;26.73;11.10;;;;;;;;;;5049116;28;20038;-85
2023/01/24 15:15:38;;;;;;;27.98;11.23;;;;;;;;;;5023987;28;20036;-87
2023/01/24 15:18:37;;;;;;;26.67;11.18;;;;;;;;;;5034612;28;20029;-86
2023/01/24 15:21:03;;;;;;;23.42;10.70;;;;;;;;;;5038469;28;20047;-86
2023/01/24 15:23:32;;;;;;;24.63;11.00;;;;;;;;;;5040445;28;20431;-90
2023/01/24 15:26:00;;;;;;;24.67;10.40;;;;;;;;;;5050801;28;20447;-88
2023/01/24 15:28:29;;;;;;;23.15;10.52;;;;;;;;;;5034763;28;20035;-87